createdAt,value
2023-02-19T00:07:56.854Z,11.15
2023-02-19T00:18:01.079Z,11.17
2023-02-19T00:28:03.843Z,11.16
2023-02-19T00:38:08.189Z,11.18
2023-02-19T00:48:11.046Z,11.17
2023-02-19T00:58:15.214Z,11.10
2023-02-19T01:08:18.033Z,11.02
2023-02-19T01:18:22.334Z,11.03
2023-02-19T01:28:25.100Z,11.00
2023-02-19T01:38:29.312Z,10.97
2023-02-19T01:48:33.451Z,10.97
2023-02-19T01:58:38.197Z,10.88
2023-02-19T02:08:58.718Z,10.86
2023-02-19T02:19:10.996Z,10.91
2023-02-19T02:29:22.089Z,10.86
2023-02-19T02:39:28.251Z,10.82
2023-02-19T02:49:31.756Z,10.76
2023-02-19T02:59:38.669Z,10.72
2023-02-19T03:09:43.740Z,10.44
2023-02-19T03:19:51.727Z,10.19
2023-02-19T03:29:56.143Z,10.07
2023-02-19T03:40:01.683Z,10.11
2023-02-19T03:50:10.231Z,10.13
2023-02-19T04:00:17.140Z,10.09
2023-02-19T04:10:21.051Z,9.91
2023-02-19T04:20:30.962Z,9.88
2023-02-19T04:30:33.893Z,9.84
2023-02-19T04:40:38.126Z,9.89
2023-02-19T04:50:41.009Z,9.75
2023-02-19T05:00:45.212Z,9.62
2023-02-19T05:10:48.042Z,9.61
2023-02-19T05:20:52.419Z,9.55
2023-02-19T05:30:55.942Z,9.49
2023-02-19T05:41:07.394Z,9.43
2023-02-19T05:51:11.673Z,9.48
2023-02-19T06:01:17.761Z,9.43
2023-02-19T06:11:21.071Z,9.30
2023-02-19T06:21:25.216Z,9.22
2023-02-19T06:31:28.105Z,9.24
2023-02-19T06:41:32.405Z,9.20
2023-02-19T06:51:35.692Z,9.30
2023-02-19T07:01:40.093Z,9.38
2023-02-19T07:11:42.928Z,9.52
2023-02-19T07:21:47.041Z,9.51
2023-02-19T07:31:50.302Z,9.36
2023-02-19T07:41:54.682Z,9.40
2023-02-19T07:52:02.707Z,9.35
2023-02-19T08:02:28.850Z,9.35
2023-02-19T08:12:49.411Z,9.37
2023-02-19T08:22:53.686Z,9.50
2023-02-19T08:32:56.838Z,9.52
2023-02-19T08:43:04.740Z,9.66
2023-02-19T08:53:08.033Z,9.85
2023-02-19T09:03:12.303Z,10.05
2023-02-19T09:13:15.322Z,10.34
2023-02-19T09:23:19.442Z,10.26
2023-02-19T09:33:22.184Z,10.56
2023-02-19T09:43:28.864Z,10.79
2023-02-19T09:53:40.326Z,10.94
2023-02-19T10:03:46.953Z,10.84
2023-02-19T10:13:52.686Z,10.96
2023-02-19T10:23:58.636Z,10.90
2023-02-19T10:34:02.500Z,10.89
2023-02-19T10:44:09.088Z,10.86
2023-02-19T10:54:17.368Z,10.88
2023-02-19T11:04:21.651Z,11.12
2023-02-19T11:14:26.225Z,11.19
2023-02-19T11:24:35.617Z,11.33
2023-02-19T11:34:39.395Z,11.33
2023-02-19T11:44:52.353Z,11.59
2023-02-19T11:54:58.284Z,11.96
2023-02-19T12:05:11.182Z,12.04
2023-02-19T12:15:28.360Z,12.11
2023-02-19T12:25:38.073Z,11.98
2023-02-19T12:35:46.284Z,12.09
2023-02-19T12:45:53.449Z,11.98
2023-02-19T12:55:57.905Z,11.76
2023-02-19T13:06:04.912Z,11.72
2023-02-19T13:16:10.311Z,11.38
2023-02-19T13:26:31.138Z,11.45
2023-02-19T13:36:37.133Z,11.39
2023-02-19T13:46:41.583Z,10.98
2023-02-19T13:56:45.968Z,10.73
2023-02-19T14:07:03.550Z,10.29
2023-02-19T14:17:26.057Z,9.96
2023-02-19T14:27:29.031Z,9.87
2023-02-19T14:37:33.419Z,9.92
2023-02-19T14:47:38.243Z,9.76
2023-02-19T14:57:45.759Z,9.54
2023-02-19T15:07:49.129Z,9.57
2023-02-19T15:17:54.039Z,9.68
2023-02-19T15:27:57.004Z,9.59
2023-02-19T15:38:02.193Z,9.53
2023-02-19T15:48:07.261Z,9.49
2023-02-19T15:58:16.000Z,9.30
2023-02-19T16:08:21.507Z,9.11
2023-02-19T16:18:25.814Z,8.87
2023-02-19T16:28:30.321Z,8.66
2023-02-19T16:38:34.477Z,8.48
2023-02-19T16:48:37.291Z,8.35
2023-02-19T16:58:41.704Z,8.34
2023-02-19T17:08:45.042Z,8.27
2023-02-19T17:18:50.065Z,8.28
2023-02-19T17:28:53.399Z,8.26
2023-02-19T17:38:58.049Z,8.26
2023-02-19T17:49:00.958Z,8.24
2023-02-19T17:59:05.390Z,8.22
2023-02-19T18:09:08.163Z,8.08
2023-02-19T18:19:12.751Z,8.04
2023-02-19T18:29:15.937Z,7.78
2023-02-19T18:39:20.279Z,7.50
2023-02-19T18:49:24.976Z,7.26
2023-02-19T18:59:29.366Z,7.11
2023-02-19T19:09:32.469Z,6.93
2023-02-19T19:19:36.771Z,6.74
2023-02-19T19:29:39.573Z,6.63
2023-02-19T19:39:45.239Z,6.57
2023-02-19T19:49:48.366Z,6.46
2023-02-19T19:59:52.534Z,6.39
2023-02-19T20:09:55.492Z,6.24
2023-02-19T20:19:59.650Z,6.15
2023-02-19T20:30:02.497Z,5.98
2023-02-19T20:40:07.666Z,5.87
2023-02-19T20:50:11.133Z,5.75
2023-02-19T21:00:17.070Z,5.54
2023-02-19T21:10:20.374Z,5.44
2023-02-19T21:20:24.533Z,5.35
2023-02-19T21:30:27.720Z,5.24
2023-02-19T21:40:32.925Z,5.22
2023-02-19T21:50:35.646Z,5.16
2023-02-19T22:00:39.840Z,5.20
2023-02-19T22:10:42.792Z,5.27
2023-02-19T22:20:47.120Z,5.20
2023-02-19T22:30:50.159Z,5.16
2023-02-19T22:40:54.524Z,5.13
2023-02-19T22:50:57.496Z,5.10
2023-02-19T23:01:01.768Z,5.08
2023-02-19T23:11:04.656Z,5.05
2023-02-19T23:21:08.919Z,5.05
2023-02-19T23:31:12.555Z,5.15
2023-02-19T23:41:17.959Z,5.39
2023-02-19T23:51:20.688Z,5.60
